UAL1653 KBUR-KTEX
Flight info
| Callsign | UAL1653 |
|---|---|
| Flight time | 1h 29m |
| Altitude | 35000 |
| Route | SLAPP2 LAS J146 DICEE DCT CEZ DCT HAVWU DCT ETL DCT |
| Aircraft | B738/M-VGDW/C |
Departure
| Time | 2026-05-06 15:44 |
|---|---|
| Airport | Hollywood Burbank/Bob Hope Airport (KBUR) |
Arrival
| Time | 2026-05-06 17:14 |
|---|---|
| Airport | Telluride Regional Airport (KTEX) |
| Time | Latitude | Longitude | Altitude | Speed | Heading |
|---|---|---|---|---|---|
| 2026-05-06 15:25 | 34.19678 | -118.35479 | 694 ft | 0 kts | 179° |
| 2026-05-06 15:32 | 34.19691 | -118.35479 | 690 ft | 3 kts | 179° |
| 2026-05-06 15:33 | 34.19709 | -118.35484 | 692 ft | 3 kts | 124° |
| 2026-05-06 15:33 | 34.19714 | -118.35497 | 688 ft | 0 kts | 95° |
| 2026-05-06 15:37 | 34.19717 | -118.35487 | 690 ft | 0 kts | 54° |
| 2026-05-06 15:40 | 34.19746 | -118.35486 | 693 ft | 9 kts | 342° |
| 2026-05-06 15:40 | 34.19835 | -118.35524 | 699 ft | 19 kts | 344° |
| 2026-05-06 15:40 | 34.19998 | -118.35571 | 694 ft | 28 kts | 347° |
| 2026-05-06 15:40 | 34.20186 | -118.35622 | 714 ft | 27 kts | 348° |
| 2026-05-06 15:41 | 34.20364 | -118.35672 | 718 ft | 25 kts | 347° |
| 2026-05-06 15:41 | 34.20528 | -118.35716 | 725 ft | 24 kts | 347° |
| 2026-05-06 15:41 | 34.20684 | -118.35760 | 732 ft | 23 kts | 347° |
| 2026-05-06 15:41 | 34.20835 | -118.35802 | 745 ft | 22 kts | 348° |
| 2026-05-06 15:42 | 34.20983 | -118.35840 | 755 ft | 21 kts | 348° |
| 2026-05-06 15:42 | 34.21125 | -118.35885 | 766 ft | 21 kts | 334° |
| 2026-05-06 15:42 | 34.21167 | -118.35923 | 770 ft | 0 kts | 310° |
| 2026-05-06 15:42 | 34.21170 | -118.35927 | 770 ft | 3 kts | 310° |
| 2026-05-06 15:43 | 34.21204 | -118.35977 | 772 ft | 12 kts | 305° |
| 2026-05-06 15:43 | 34.21197 | -118.36033 | 772 ft | 6 kts | 208° |
| 2026-05-06 15:43 | 34.21171 | -118.36031 | 772 ft | 0 kts | 166° |
| 2026-05-06 15:44 | 34.21086 | -118.36007 | 768 ft | 43 kts | 168° |
| 2026-05-06 15:44 | 34.20524 | -118.35851 | 727 ft | 121 kts | 167° |
| 2026-05-06 15:44 | 34.19491 | -118.35565 | 784 ft | 173 kts | 167° |
| 2026-05-06 15:44 | 34.18252 | -118.35292 | 1393 ft | 190 kts | 179° |
| 2026-05-06 15:45 | 34.16916 | -118.35628 | 2055 ft | 204 kts | 206° |
| 2026-05-06 15:45 | 34.15736 | -118.36635 | 2664 ft | 213 kts | 220° |
| 2026-05-06 15:45 | 34.14557 | -118.37847 | 3140 ft | 232 kts | 222° |
| 2026-05-06 15:45 | 34.13398 | -118.39232 | 3706 ft | 240 kts | 235° |
| 2026-05-06 15:46 | 34.12636 | -118.41054 | 4303 ft | 250 kts | 259° |
| 2026-05-06 15:46 | 34.12564 | -118.43178 | 4947 ft | 260 kts | 281° |
| 2026-05-06 15:46 | 34.13169 | -118.45260 | 5689 ft | 260 kts | 305° |
| 2026-05-06 15:46 | 34.14400 | -118.46805 | 6645 ft | 256 kts | 328° |
| 2026-05-06 15:47 | 34.16008 | -118.47711 | 7255 ft | 264 kts | 345° |
| 2026-05-06 15:47 | 34.17855 | -118.47899 | 7845 ft | 269 kts | 9° |
| 2026-05-06 15:47 | 34.19643 | -118.47232 | 8597 ft | 272 kts | 24° |
| 2026-05-06 15:47 | 34.21360 | -118.46258 | 9378 ft | 272 kts | 26° |
| 2026-05-06 15:48 | 34.23069 | -118.45245 | 10162 ft | 272 kts | 26° |
| 2026-05-06 15:48 | 34.24761 | -118.44265 | 10851 ft | 275 kts | 26° |
| 2026-05-06 15:48 | 34.26521 | -118.43260 | 11337 ft | 284 kts | 25° |
| 2026-05-06 15:48 | 34.28381 | -118.42265 | 11561 ft | 302 kts | 24° |
| 2026-05-06 15:49 | 34.30380 | -118.41240 | 11723 ft | 321 kts | 23° |
| 2026-05-06 15:49 | 34.32509 | -118.40165 | 11867 ft | 339 kts | 23° |
| 2026-05-06 15:49 | 34.34743 | -118.39042 | 11989 ft | 355 kts | 23° |
| 2026-05-06 15:49 | 34.37075 | -118.37919 | 12248 ft | 365 kts | 23° |
| 2026-05-06 15:50 | 34.39392 | -118.36728 | 12829 ft | 366 kts | 23° |
| 2026-05-06 15:50 | 34.41750 | -118.35520 | 13317 ft | 369 kts | 23° |
| 2026-05-06 15:50 | 34.44133 | -118.34310 | 13821 ft | 372 kts | 23° |
| 2026-05-06 15:50 | 34.46467 | -118.32934 | 14277 ft | 373 kts | 30° |
| 2026-05-06 15:51 | 34.48583 | -118.31096 | 14670 ft | 376 kts | 39° |
| 2026-05-06 15:51 | 34.50591 | -118.29044 | 15082 ft | 378 kts | 39° |
| 2026-05-06 15:51 | 34.52588 | -118.27011 | 15489 ft | 380 kts | 39° |
| 2026-05-06 15:51 | 34.54636 | -118.24936 | 15863 ft | 382 kts | 39° |
| 2026-05-06 15:52 | 34.56665 | -118.22895 | 16241 ft | 384 kts | 39° |
| 2026-05-06 15:52 | 34.58737 | -118.20819 | 16636 ft | 385 kts | 38° |
| 2026-05-06 15:52 | 34.60813 | -118.18740 | 16998 ft | 387 kts | 38° |
| 2026-05-06 15:52 | 34.62902 | -118.16645 | 17353 ft | 389 kts | 38° |
| 2026-05-06 15:53 | 34.64842 | -118.14347 | 17667 ft | 393 kts | 50° |
| 2026-05-06 15:53 | 34.66301 | -118.11568 | 18018 ft | 397 kts | 60° |
| 2026-05-06 15:53 | 34.67337 | -118.08438 | 18330 ft | 403 kts | 72° |
| 2026-05-06 15:53 | 34.67905 | -118.05077 | 18633 ft | 406 kts | 76° |
| 2026-05-06 15:54 | 34.68424 | -118.01705 | 18924 ft | 406 kts | 76° |
| 2026-05-06 15:54 | 34.68971 | -117.98328 | 19140 ft | 409 kts | 75° |
| 2026-05-06 15:54 | 34.69397 | -117.94913 | 19237 ft | 416 kts | 81° |
| 2026-05-06 15:54 | 34.69600 | -117.91409 | 19578 ft | 415 kts | 83° |
| 2026-05-06 15:55 | 34.69769 | -117.87909 | 19868 ft | 415 kts | 83° |
| 2026-05-06 15:55 | 34.69948 | -117.84392 | 20072 ft | 416 kts | 82° |
| 2026-05-06 15:55 | 34.70148 | -117.80873 | 20241 ft | 418 kts | 82° |
| 2026-05-06 15:55 | 34.70358 | -117.77343 | 20447 ft | 419 kts | 82° |
| 2026-05-06 15:56 | 34.70554 | -117.73853 | 20646 ft | 420 kts | 83° |
| 2026-05-06 15:56 | 34.70703 | -117.70283 | 20847 ft | 422 kts | 83° |
| 2026-05-06 15:56 | 34.70831 | -117.66709 | 21070 ft | 423 kts | 84° |
| 2026-05-06 15:56 | 34.70957 | -117.63129 | 21274 ft | 424 kts | 84° |
| 2026-05-06 15:57 | 34.71089 | -117.59577 | 21461 ft | 425 kts | 83° |
| 2026-05-06 15:57 | 34.71226 | -117.55983 | 21644 ft | 426 kts | 83° |
| 2026-05-06 15:57 | 34.71389 | -117.52368 | 21821 ft | 426 kts | 81° |
| 2026-05-06 15:57 | 34.71879 | -117.48833 | 21980 ft | 423 kts | 71° |
| 2026-05-06 15:58 | 34.72773 | -117.45441 | 22407 ft | 415 kts | 68° |
| 2026-05-06 15:58 | 34.73677 | -117.42159 | 23165 ft | 403 kts | 68° |
| 2026-05-06 15:58 | 34.74540 | -117.38998 | 23707 ft | 397 kts | 69° |
| 2026-05-06 15:58 | 34.75409 | -117.35795 | 23880 ft | 399 kts | 69° |
| 2026-05-06 15:59 | 34.76276 | -117.32571 | 23980 ft | 402 kts | 69° |
| 2026-05-06 15:59 | 34.77141 | -117.29333 | 24141 ft | 403 kts | 69° |
| 2026-05-06 15:59 | 34.77992 | -117.26125 | 24336 ft | 403 kts | 69° |
| 2026-05-06 15:59 | 34.78862 | -117.22838 | 24507 ft | 403 kts | 69° |
| 2026-05-06 16:00 | 34.79772 | -117.19665 | 24652 ft | 402 kts | 63° |
| 2026-05-06 16:00 | 34.81111 | -117.16675 | 24786 ft | 400 kts | 54° |
| 2026-05-06 16:00 | 34.82797 | -117.13988 | 24968 ft | 398 kts | 50° |
| 2026-05-06 16:00 | 34.84538 | -117.11353 | 25123 ft | 399 kts | 50° |
| 2026-05-06 16:01 | 34.86280 | -117.08712 | 25264 ft | 400 kts | 50° |
| 2026-05-06 16:01 | 34.88002 | -117.06087 | 25398 ft | 401 kts | 50° |
| 2026-05-06 16:01 | 34.89742 | -117.03423 | 25551 ft | 402 kts | 50° |
| 2026-05-06 16:01 | 34.91480 | -117.00751 | 25698 ft | 402 kts | 50° |
| 2026-05-06 16:02 | 34.93226 | -116.98060 | 25800 ft | 403 kts | 50° |
| 2026-05-06 16:02 | 34.94967 | -116.95370 | 25940 ft | 404 kts | 50° |
| 2026-05-06 16:02 | 34.96691 | -116.92702 | 26070 ft | 404 kts | 50° |
| 2026-05-06 16:02 | 34.98434 | -116.90003 | 26175 ft | 405 kts | 50° |
| 2026-05-06 16:03 | 35.00180 | -116.87298 | 26306 ft | 405 kts | 50° |
| 2026-05-06 16:03 | 35.01904 | -116.84623 | 26453 ft | 405 kts | 50° |
| 2026-05-06 16:03 | 35.03651 | -116.81913 | 26583 ft | 406 kts | 50° |
| 2026-05-06 16:03 | 35.05404 | -116.79189 | 26697 ft | 406 kts | 50° |
| 2026-05-06 16:04 | 35.07154 | -116.76469 | 26797 ft | 407 kts | 50° |
| 2026-05-06 16:04 | 35.08886 | -116.73775 | 26888 ft | 407 kts | 50° |
| 2026-05-06 16:04 | 35.10636 | -116.71050 | 26995 ft | 407 kts | 50° |
| 2026-05-06 16:04 | 35.12391 | -116.68316 | 27093 ft | 407 kts | 50° |
| 2026-05-06 16:05 | 35.14145 | -116.65581 | 27168 ft | 408 kts | 50° |
| 2026-05-06 16:05 | 35.15876 | -116.62879 | 27296 ft | 408 kts | 50° |
| 2026-05-06 16:05 | 35.17628 | -116.60143 | 27390 ft | 409 kts | 50° |
| 2026-05-06 16:05 | 35.19389 | -116.57391 | 27481 ft | 409 kts | 50° |
| 2026-05-06 16:06 | 35.21149 | -116.54638 | 27588 ft | 410 kts | 50° |
| 2026-05-06 16:06 | 35.22907 | -116.51886 | 27680 ft | 410 kts | 50° |
| 2026-05-06 16:06 | 35.24642 | -116.49167 | 27762 ft | 410 kts | 51° |
| 2026-05-06 16:06 | 35.26240 | -116.46258 | 27811 ft | 413 kts | 59° |
| 2026-05-06 16:07 | 35.27583 | -116.43131 | 27874 ft | 414 kts | 60° |
| 2026-05-06 16:07 | 35.28896 | -116.39993 | 27936 ft | 414 kts | 60° |
| 2026-05-06 16:07 | 35.31510 | -116.33734 | 28066 ft | 415 kts | 60° |
| 2026-05-06 16:08 | 35.34168 | -116.27437 | 28178 ft | 416 kts | 60° |
| 2026-05-06 16:08 | 35.36827 | -116.21176 | 28317 ft | 416 kts | 60° |
| 2026-05-06 16:09 | 35.39507 | -116.14869 | 28432 ft | 417 kts | 60° |
| 2026-05-06 16:09 | 35.42184 | -116.08562 | 28569 ft | 417 kts | 60° |
| 2026-05-06 16:10 | 35.44853 | -116.02261 | 28650 ft | 418 kts | 60° |
| 2026-05-06 16:10 | 35.47516 | -115.95962 | 28741 ft | 418 kts | 60° |
| 2026-05-06 16:11 | 35.50198 | -115.89603 | 28831 ft | 419 kts | 60° |
| 2026-05-06 16:11 | 35.52880 | -115.83235 | 28944 ft | 419 kts | 60° |
| 2026-05-06 16:12 | 35.55540 | -115.76906 | 29032 ft | 420 kts | 60° |
| 2026-05-06 16:12 | 35.58219 | -115.70520 | 29099 ft | 420 kts | 60° |
| 2026-05-06 16:13 | 35.60897 | -115.64123 | 29186 ft | 420 kts | 60° |
| 2026-05-06 16:13 | 35.63573 | -115.57719 | 29260 ft | 421 kts | 60° |
| 2026-05-06 16:14 | 35.66239 | -115.51324 | 29359 ft | 421 kts | 60° |
| 2026-05-06 16:14 | 35.68398 | -115.44615 | 29407 ft | 425 kts | 68° |
| 2026-05-06 16:15 | 35.70285 | -115.37689 | 29469 ft | 426 kts | 68° |
| 2026-05-06 16:15 | 35.72166 | -115.30811 | 29518 ft | 426 kts | 68° |
| 2026-05-06 16:16 | 35.74091 | -115.23881 | 29552 ft | 427 kts | 67° |
| 2026-05-06 16:16 | 35.76012 | -115.17007 | 29603 ft | 427 kts | 67° |
| 2026-05-06 16:17 | 35.77947 | -115.10085 | 29633 ft | 427 kts | 67° |
| 2026-05-06 16:17 | 35.79881 | -115.03151 | 29663 ft | 428 kts | 67° |
| 2026-05-06 16:18 | 35.81803 | -114.96242 | 29664 ft | 428 kts | 67° |
| 2026-05-06 16:18 | 35.83739 | -114.89262 | 29679 ft | 429 kts | 67° |
| 2026-05-06 16:19 | 35.85656 | -114.82331 | 29732 ft | 430 kts | 67° |
| 2026-05-06 16:19 | 35.87582 | -114.75350 | 29796 ft | 430 kts | 67° |
| 2026-05-06 16:20 | 35.89506 | -114.68359 | 29828 ft | 430 kts | 68° |
| 2026-05-06 16:20 | 35.91419 | -114.61388 | 29833 ft | 430 kts | 68° |
| 2026-05-06 16:21 | 35.93337 | -114.54382 | 29880 ft | 430 kts | 68° |
| 2026-05-06 16:21 | 35.95240 | -114.47413 | 29902 ft | 430 kts | 68° |
| 2026-05-06 16:22 | 35.97138 | -114.40444 | 29928 ft | 430 kts | 68° |
| 2026-05-06 16:22 | 35.99044 | -114.33429 | 29973 ft | 430 kts | 68° |
| 2026-05-06 16:23 | 36.00948 | -114.26401 | 29989 ft | 431 kts | 68° |
| 2026-05-06 16:23 | 36.02838 | -114.19407 | 30020 ft | 431 kts | 68° |
| 2026-05-06 16:24 | 36.04732 | -114.12376 | 30094 ft | 430 kts | 68° |
| 2026-05-06 16:24 | 36.06623 | -114.05341 | 30127 ft | 430 kts | 68° |
| 2026-05-06 16:25 | 36.08495 | -113.98359 | 30141 ft | 431 kts | 68° |
| 2026-05-06 16:25 | 36.10387 | -113.91284 | 30188 ft | 431 kts | 68° |
| 2026-05-06 16:26 | 36.11307 | -113.87805 | 30361 ft | 429 kts | 68° |
| 2026-05-06 16:26 | 36.12243 | -113.84287 | 30370 ft | 429 kts | 68° |
| 2026-05-06 16:26 | 36.14120 | -113.77251 | 30387 ft | 430 kts | 68° |
| 2026-05-06 16:27 | 36.15979 | -113.70253 | 30418 ft | 430 kts | 68° |
| 2026-05-06 16:27 | 36.17846 | -113.63199 | 30427 ft | 431 kts | 68° |
| 2026-05-06 16:28 | 36.19708 | -113.56141 | 30454 ft | 431 kts | 68° |
| 2026-05-06 16:28 | 36.21556 | -113.49117 | 30498 ft | 431 kts | 68° |
| 2026-05-06 16:29 | 36.23413 | -113.42038 | 30526 ft | 431 kts | 68° |
| 2026-05-06 16:29 | 36.25250 | -113.35019 | 30607 ft | 430 kts | 68° |
| 2026-05-06 16:30 | 36.26783 | -113.29141 | 30616 ft | 430 kts | 68° |
| 2026-05-06 16:30 | 36.28922 | -113.20922 | 30647 ft | 430 kts | 68° |
| 2026-05-06 16:31 | 36.30760 | -113.13843 | 30670 ft | 430 kts | 68° |
| 2026-05-06 16:31 | 36.32595 | -113.06755 | 30704 ft | 431 kts | 68° |
| 2026-05-06 16:32 | 36.34415 | -112.99706 | 30744 ft | 431 kts | 68° |
| 2026-05-06 16:32 | 36.36242 | -112.92607 | 30763 ft | 432 kts | 68° |
| 2026-05-06 16:33 | 36.37760 | -112.86693 | 30860 ft | 431 kts | 68° |
| 2026-05-06 16:33 | 36.38959 | -112.82008 | 30986 ft | 429 kts | 68° |
| 2026-05-06 16:34 | 36.40764 | -112.74949 | 31038 ft | 429 kts | 68° |
| 2026-05-06 16:34 | 36.42561 | -112.67907 | 31049 ft | 430 kts | 68° |
| 2026-05-06 16:35 | 36.44067 | -112.61991 | 31038 ft | 431 kts | 68° |
| 2026-05-06 16:35 | 36.46167 | -112.53709 | 31033 ft | 432 kts | 68° |
| 2026-05-06 16:36 | 36.47677 | -112.47734 | 31035 ft | 433 kts | 68° |
| 2026-05-06 16:36 | 36.49470 | -112.40629 | 31030 ft | 434 kts | 68° |
| 2026-05-06 16:37 | 36.51273 | -112.33460 | 31023 ft | 434 kts | 68° |
| 2026-05-06 16:37 | 36.53074 | -112.26277 | 31017 ft | 434 kts | 68° |
| 2026-05-06 16:38 | 36.54859 | -112.19136 | 30996 ft | 435 kts | 68° |
| 2026-05-06 16:38 | 36.56660 | -112.11915 | 31015 ft | 436 kts | 68° |
| 2026-05-06 16:39 | 36.58446 | -112.04733 | 30975 ft | 437 kts | 68° |
| 2026-05-06 16:39 | 36.60241 | -111.97492 | 30971 ft | 437 kts | 68° |
| 2026-05-06 16:40 | 36.62030 | -111.90257 | 30955 ft | 437 kts | 68° |
| 2026-05-06 16:40 | 36.63815 | -111.83011 | 30959 ft | 438 kts | 68° |
| 2026-05-06 16:41 | 36.65591 | -111.75787 | 30938 ft | 438 kts | 68° |
| 2026-05-06 16:41 | 36.67363 | -111.68549 | 30944 ft | 438 kts | 68° |
| 2026-05-06 16:42 | 36.69142 | -111.61271 | 30939 ft | 439 kts | 68° |
| 2026-05-06 16:42 | 36.70912 | -111.54008 | 31000 ft | 439 kts | 68° |
| 2026-05-06 16:43 | 36.72687 | -111.46702 | 31002 ft | 440 kts | 68° |
| 2026-05-06 16:43 | 36.74456 | -111.39393 | 31014 ft | 440 kts | 68° |
| 2026-05-06 16:44 | 36.76213 | -111.32120 | 31009 ft | 440 kts | 68° |
| 2026-05-06 16:44 | 36.77979 | -111.24782 | 31000 ft | 440 kts | 68° |
| 2026-05-06 16:45 | 36.79737 | -111.17454 | 30975 ft | 440 kts | 68° |
| 2026-05-06 16:45 | 36.81481 | -111.10166 | 30966 ft | 441 kts | 68° |
| 2026-05-06 16:46 | 36.83235 | -111.02818 | 30944 ft | 442 kts | 68° |
| 2026-05-06 16:46 | 36.84992 | -110.95427 | 30928 ft | 442 kts | 68° |
| 2026-05-06 16:47 | 36.86726 | -110.88110 | 30934 ft | 442 kts | 68° |
| 2026-05-06 16:47 | 36.88468 | -110.80741 | 30933 ft | 441 kts | 68° |
| 2026-05-06 16:48 | 36.90202 | -110.73387 | 30929 ft | 443 kts | 68° |
| 2026-05-06 16:48 | 36.91941 | -110.65983 | 30926 ft | 443 kts | 68° |
| 2026-05-06 16:49 | 36.93675 | -110.58581 | 30912 ft | 444 kts | 68° |
| 2026-05-06 16:49 | 36.95398 | -110.51201 | 30921 ft | 444 kts | 68° |
| 2026-05-06 16:50 | 36.97131 | -110.43755 | 30912 ft | 445 kts | 67° |
| 2026-05-06 16:50 | 36.98845 | -110.36370 | 30902 ft | 445 kts | 68° |
| 2026-05-06 16:51 | 37.00565 | -110.28930 | 30899 ft | 445 kts | 68° |
| 2026-05-06 16:51 | 37.02282 | -110.21485 | 30898 ft | 445 kts | 68° |
| 2026-05-06 16:52 | 37.03986 | -110.14069 | 30887 ft | 446 kts | 68° |
| 2026-05-06 16:52 | 37.05702 | -110.06580 | 30899 ft | 447 kts | 67° |
| 2026-05-06 16:53 | 37.07400 | -109.99143 | 30897 ft | 447 kts | 67° |
| 2026-05-06 16:53 | 37.09108 | -109.91638 | 30890 ft | 447 kts | 67° |
| 2026-05-06 16:54 | 37.10803 | -109.84169 | 30878 ft | 448 kts | 67° |
| 2026-05-06 16:54 | 37.12509 | -109.76629 | 30904 ft | 449 kts | 67° |
| 2026-05-06 16:55 | 37.14200 | -109.69129 | 30895 ft | 449 kts | 67° |
| 2026-05-06 16:55 | 37.15898 | -109.61570 | 30899 ft | 450 kts | 67° |
| 2026-05-06 16:56 | 37.17584 | -109.54044 | 30889 ft | 450 kts | 67° |
| 2026-05-06 16:56 | 37.19278 | -109.46454 | 30897 ft | 451 kts | 68° |
| 2026-05-06 16:57 | 37.20960 | -109.38899 | 30903 ft | 453 kts | 68° |
| 2026-05-06 16:57 | 37.22651 | -109.31273 | 30896 ft | 453 kts | 68° |
| 2026-05-06 16:58 | 37.24338 | -109.23641 | 30900 ft | 454 kts | 68° |
| 2026-05-06 16:58 | 37.26012 | -109.16040 | 30900 ft | 454 kts | 68° |
| 2026-05-06 16:59 | 37.27695 | -109.08370 | 30922 ft | 455 kts | 68° |
| 2026-05-06 16:59 | 37.29371 | -109.00718 | 30924 ft | 456 kts | 68° |
| 2026-05-06 17:00 | 37.31056 | -108.92994 | 30813 ft | 460 kts | 68° |
| 2026-05-06 17:00 | 37.31909 | -108.89094 | 30224 ft | 474 kts | 68° |
| 2026-05-06 17:00 | 37.32774 | -108.85111 | 30193 ft | 472 kts | 68° |
| 2026-05-06 17:01 | 37.34490 | -108.77160 | 30182 ft | 469 kts | 68° |
| 2026-05-06 17:01 | 37.35350 | -108.73180 | 30288 ft | 471 kts | 68° |
| 2026-05-06 17:01 | 37.36208 | -108.69205 | 30279 ft | 471 kts | 68° |
| 2026-05-06 17:02 | 37.38323 | -108.61548 | 30223 ft | 455 kts | 50° |
| 2026-05-06 17:02 | 37.40376 | -108.58609 | 30260 ft | 441 kts | 34° |
| 2026-05-06 17:02 | 37.42877 | -108.56438 | 30256 ft | 431 kts | 24° |
| 2026-05-06 17:02 | 37.45589 | -108.55023 | 30229 ft | 424 kts | 12° |
| 2026-05-06 17:03 | 37.48482 | -108.54357 | 30225 ft | 420 kts | 6° |
| 2026-05-06 17:03 | 37.51382 | -108.53874 | 30070 ft | 422 kts | 5° |
| 2026-05-06 17:03 | 37.54326 | -108.53412 | 29115 ft | 426 kts | 5° |
| 2026-05-06 17:03 | 37.57255 | -108.52949 | 28301 ft | 423 kts | 5° |
| 2026-05-06 17:04 | 37.60168 | -108.52471 | 27503 ft | 421 kts | 5° |
| 2026-05-06 17:04 | 37.63079 | -108.51978 | 26704 ft | 420 kts | 5° |
| 2026-05-06 17:04 | 37.65971 | -108.51479 | 25971 ft | 419 kts | 4° |
| 2026-05-06 17:04 | 37.68860 | -108.50974 | 25191 ft | 419 kts | 4° |
| 2026-05-06 17:05 | 37.71718 | -108.50473 | 24384 ft | 421 kts | 4° |
| 2026-05-06 17:05 | 37.74655 | -108.49957 | 23608 ft | 423 kts | 4° |
| 2026-05-06 17:05 | 37.77553 | -108.49448 | 22706 ft | 425 kts | 4° |
| 2026-05-06 17:05 | 37.80492 | -108.48931 | 21804 ft | 427 kts | 4° |
| 2026-05-06 17:06 | 37.83427 | -108.48412 | 20774 ft | 421 kts | 5° |
| 2026-05-06 17:06 | 37.86310 | -108.47902 | 19778 ft | 415 kts | 5° |
| 2026-05-06 17:06 | 37.89150 | -108.47403 | 18829 ft | 409 kts | 5° |
| 2026-05-06 17:06 | 37.91959 | -108.46908 | 17815 ft | 403 kts | 5° |
| 2026-05-06 17:07 | 37.94665 | -108.46016 | 16736 ft | 405 kts | 22° |
| 2026-05-06 17:07 | 37.96958 | -108.44031 | 15790 ft | 405 kts | 40° |
| 2026-05-06 17:07 | 37.98754 | -108.41283 | 14795 ft | 406 kts | 57° |
| 2026-05-06 17:07 | 37.99943 | -108.38041 | 13886 ft | 403 kts | 64° |
| 2026-05-06 17:08 | 38.01003 | -108.34776 | 13366 ft | 390 kts | 65° |
| 2026-05-06 17:08 | 38.02022 | -108.31687 | 13124 ft | 368 kts | 64° |
| 2026-05-06 17:08 | 38.02996 | -108.28796 | 13002 ft | 345 kts | 64° |
| 2026-05-06 17:08 | 38.03487 | -108.25937 | 12987 ft | 331 kts | 87° |
| 2026-05-06 17:09 | 38.03211 | -108.23116 | 12995 ft | 316 kts | 107° |
| 2026-05-06 17:09 | 38.02467 | -108.20607 | 12999 ft | 293 kts | 109° |
| 2026-05-06 17:09 | 38.01749 | -108.18302 | 12988 ft | 270 kts | 110° |
| 2026-05-06 17:09 | 38.01079 | -108.16198 | 12969 ft | 243 kts | 110° |
| 2026-05-06 17:10 | 38.00495 | -108.14330 | 12996 ft | 210 kts | 109° |
| 2026-05-06 17:10 | 37.99991 | -108.12672 | 12990 ft | 201 kts | 107° |
| 2026-05-06 17:10 | 37.99597 | -108.10898 | 12727 ft | 214 kts | 101° |
| 2026-05-06 17:10 | 37.99235 | -108.09107 | 12407 ft | 210 kts | 102° |
| 2026-05-06 17:11 | 37.98861 | -108.07336 | 12042 ft | 205 kts | 102° |
| 2026-05-06 17:11 | 37.98496 | -108.05619 | 11719 ft | 199 kts | 102° |
| 2026-05-06 17:11 | 37.98145 | -108.03959 | 11422 ft | 195 kts | 102° |
| 2026-05-06 17:11 | 37.97789 | -108.02281 | 11119 ft | 198 kts | 102° |
| 2026-05-06 17:12 | 37.97429 | -108.00571 | 10716 ft | 201 kts | 102° |
| 2026-05-06 17:12 | 37.97071 | -107.98882 | 10470 ft | 198 kts | 101° |
| 2026-05-06 17:12 | 37.96717 | -107.97204 | 10277 ft | 197 kts | 101° |
| 2026-05-06 17:12 | 37.96367 | -107.95539 | 9870 ft | 193 kts | 104° |
| 2026-05-06 17:13 | 37.96028 | -107.93942 | 9600 ft | 183 kts | 105° |
| 2026-05-06 17:13 | 37.95712 | -107.92391 | 9183 ft | 183 kts | 108° |
| 2026-05-06 17:13 | 37.95385 | -107.90898 | 9026 ft | 149 kts | 104° |
| 2026-05-06 17:13 | 37.95188 | -107.89959 | 9061 ft | 73 kts | 104° |
| 2026-05-06 17:14 | 37.95111 | -107.89616 | 9076 ft | 14 kts | 120° |
| 2026-05-06 17:14 | 37.95105 | -107.89584 | 9075 ft | 1 kts | 51° |
| 2026-05-06 17:14 | 37.95111 | -107.89586 | 9076 ft | 1 kts | 345° |
| 2026-05-06 17:14 | 37.95118 | -107.89609 | 9074 ft | 5 kts | 283° |
| 2026-05-06 17:15 | 37.95128 | -107.89661 | 9074 ft | 6 kts | 285° |
| 2026-05-06 17:15 | 37.95172 | -107.89680 | 9075 ft | 8 kts | 12° |
| 2026-05-06 17:15 | 37.95226 | -107.89675 | 9075 ft | 8 kts | 344° |
| 2026-05-06 17:15 | 37.95257 | -107.89746 | 9070 ft | 11 kts | 284° |
| 2026-05-06 17:16 | 37.95278 | -107.89843 | 9066 ft | 12 kts | 285° |
| 2026-05-06 17:16 | 37.95301 | -107.89951 | 9061 ft | 16 kts | 285° |
| 2026-05-06 17:16 | 37.95331 | -107.90092 | 9057 ft | 16 kts | 285° |
| 2026-05-06 17:16 | 37.95361 | -107.90210 | 9058 ft | 7 kts | 326° |
| 2026-05-06 17:17 | 37.95399 | -107.90207 | 9057 ft | 0 kts | 12° |